Time;durP1;ratioP1;P1;durP2;ratioP2;P2;SDS_P1;SDS_P2;PMS_P1;PMS_P2;Temp;Humidity;BMP_temperature;BMP_pressure;BME280_temperature;BME280_humidity;BME280_pressure;Samples;Min_cycle;Max_cycle;Signal;HPM_P1;HPM_P2
2021/11/07 00:00:28;;;;;;;7.97;5.50;;;10.90;99.90;;;;;;4984858;28;20063;-90
2021/11/07 00:03:02;;;;;;;7.95;5.47;;;10.90;99.90;;;;;;4996918;28;20023;-90
2021/11/07 00:08:14;;;;;;;7.28;5.45;;;10.80;99.90;;;;;;4997282;28;20046;-91
2021/11/07 00:10:49;;;;;;;7.25;5.10;;;10.80;99.90;;;;;;4979953;28;20026;-91
2021/11/07 00:13:33;;;;;;;7.10;4.75;;;10.80;99.90;;;;;;4965370;28;20030;-91
2021/11/07 00:16:05;;;;;;;8.30;5.72;;;10.80;99.90;;;;;;4966062;28;20034;-90
2021/11/07 00:18:37;;;;;;;6.97;4.78;;;10.80;99.90;;;;;;4964005;28;20034;-91
2021/11/07 00:21:11;;;;;;;7.13;5.30;;;10.80;99.90;;;;;;4949074;28;20022;-92
2021/11/07 00:26:24;;;;;;;6.70;5.22;;;10.80;99.90;;;;;;4966585;28;20045;-91
2021/11/07 00:29:02;;;;;;;7.45;5.20;;;10.80;99.90;;;;;;4964374;28;20411;-93
2021/11/07 00:36:40;;;;;;;6.47;4.97;;;10.80;99.90;;;;;;4968577;28;20046;-92
2021/11/07 00:39:21;;;;;;;5.68;4.60;;;10.80;99.90;;;;;;4979632;28;20030;-92
2021/11/07 00:42:01;;;;;;;6.10;4.82;;;10.80;99.90;;;;;;4995645;28;20070;-91
2021/11/07 00:44:34;;;;;;;6.75;5.35;;;10.80;99.90;;;;;;4979527;28;20022;-91
2021/11/07 00:47:12;;;;;;;7.13;5.10;;;10.80;99.90;;;;;;4979480;28;20360;-91
2021/11/07 00:49:45;;;;;;;7.35;5.40;;;10.80;99.90;;;;;;4980695;28;20107;-91
2021/11/07 00:52:26;;;;;;;8.70;5.75;;;10.80;99.90;;;;;;4949199;28;20034;-90
2021/11/07 00:58:12;;;;;;;6.35;5.28;;;10.80;99.90;;;;;;4981727;28;20141;-92
2021/11/07 01:03:03;;;;;;;8.55;5.60;;;10.80;99.90;;;;;;4964480;28;20031;-91
2021/11/07 01:05:30;;;;;;;7.75;5.53;;;10.80;99.90;;;;;;4979183;28;20030;-92
2021/11/07 01:07:56;;;;;;;7.40;5.82;;;10.80;99.90;;;;;;4996225;28;20034;-92
2021/11/07 01:10:23;;;;;;;9.20;6.40;;;10.80;99.90;;;;;;4963061;28;20054;-92
2021/11/07 01:12:49;;;;;;;8.07;6.32;;;10.80;99.90;;;;;;4995094;28;20471;-93
2021/11/07 01:15:15;;;;;;;8.98;6.50;;;10.80;99.90;;;;;;4979411;28;20022;-91
2021/11/07 01:17:42;;;;;;;8.48;6.72;;;10.80;99.90;;;;;;4978067;28;20027;-91
2021/11/07 01:20:10;;;;;;;8.68;6.63;;;10.90;99.90;;;;;;4962459;28;20092;-91
2021/11/07 01:25:09;;;;;;;7.93;7.10;;;10.90;99.90;;;;;;4979662;28;20054;-91
2021/11/07 01:27:39;;;;;;;8.95;7.07;;;10.90;99.90;;;;;;4962638;28;20125;-90
2021/11/07 01:30:15;;;;;;;8.43;7.03;;;10.90;99.90;;;;;;4978729;28;20030;-91
2021/11/07 01:32:48;;;;;;;9.88;8.30;;;10.90;99.90;;;;;;4978343;28;20034;-91
2021/11/07 01:35:30;;;;;;;7.72;6.47;;;10.90;99.90;;;;;;4978544;28;20027;-92
2021/11/07 01:40:35;;;;;;;10.30;8.70;;;10.90;99.90;;;;;;4965577;28;20096;-90
2021/11/07 01:43:01;;;;;;;10.82;9.30;;;11.00;99.90;;;;;;4963263;28;20441;-90
2021/11/07 01:45:41;;;;;;;13.05;10.02;;;11.00;99.90;;;;;;4978593;28;20022;-90
2021/11/07 01:50:44;;;;;;;13.10;10.70;;;11.00;99.90;;;;;;4995801;28;20069;-91
2021/11/07 01:53:23;;;;;;;14.65;10.85;;;11.00;99.90;;;;;;4979210;28;20038;-91
2021/11/07 01:55:52;;;;;;;13.85;10.57;;;11.00;99.90;;;;;;4978118;28;20027;-92
2021/11/07 01:58:18;;;;;;;16.33;11.20;;;11.00;99.90;;;;;;4978621;28;20050;-91
2021/11/07 02:00:51;;;;;;;13.35;11.88;;;11.00;99.90;;;;;;4978320;28;20022;-92
2021/11/07 02:03:17;;;;;;;13.57;11.35;;;11.00;99.90;;;;;;4978033;28;20022;-89
2021/11/07 02:05:42;;;;;;;13.90;11.23;;;11.00;99.90;;;;;;4993652;28;20041;-90
2021/11/07 02:08:08;;;;;;;12.05;10.80;;;11.00;99.90;;;;;;4978333;28;20041;-89
2021/11/07 02:10:36;;;;;;;15.18;11.80;;;11.00;99.90;;;;;;4995649;28;20034;-89
2021/11/07 02:13:03;;;;;;;16.33;13.35;;;11.10;99.90;;;;;;4978011;28;20026;-90
2021/11/07 02:15:30;;;;;;;18.25;14.50;;;11.00;99.90;;;;;;4977999;28;20030;-89
2021/11/07 02:17:56;;;;;;;16.35;13.60;;;11.10;99.90;;;;;;4978205;28;20035;-90
2021/11/07 02:20:30;;;;;;;20.33;14.80;;;11.00;99.90;;;;;;4978451;28;20049;-90
2021/11/07 02:23:06;;;;;;;17.77;14.90;;;11.10;99.90;;;;;;4995443;28;20106;-90
2021/11/07 02:25:32;;;;;;;18.85;15.48;;;11.00;99.90;;;;;;4977934;28;20029;-89
2021/11/07 02:27:57;;;;;;;19.08;15.10;;;11.10;99.90;;;;;;4994084;28;20126;-89
2021/11/07 02:30:26;;;;;;;19.98;16.13;;;11.00;99.90;;;;;;4994422;28;20050;-90
2021/11/07 02:32:52;;;;;;;20.80;16.25;;;11.10;99.90;;;;;;4977662;28;20026;-89
2021/11/07 02:35:19;;;;;;;22.92;17.85;;;11.10;99.90;;;;;;4995348;28;20030;-89
2021/11/07 02:37:45;;;;;;;20.33;16.63;;;11.10;99.90;;;;;;4995075;28;20026;-89
2021/11/07 02:40:12;;;;;;;21.65;17.20;;;11.10;99.90;;;;;;4994044;28;20062;-89
2021/11/07 02:42:42;;;;;;;23.50;18.42;;;11.10;99.90;;;;;;4977918;28;20118;-89
2021/11/07 02:45:09;;;;;;;23.40;17.77;;;11.10;99.90;;;;;;4977877;28;20034;-89
2021/11/07 02:47:35;;;;;;;21.67;17.13;;;11.10;99.90;;;;;;4980716;28;20027;-89
2021/11/07 02:50:01;;;;;;;24.45;18.63;;;11.10;99.90;;;;;;4981142;28;20049;-88
2021/11/07 02:52:26;;;;;;;22.55;18.17;;;11.10;99.90;;;;;;4980535;28;20026;-88
2021/11/07 02:54:52;;;;;;;27.67;19.38;;;11.10;99.90;;;;;;4996953;28;20141;-88
2021/11/07 02:57:20;;;;;;;25.77;18.27;;;11.10;99.90;;;;;;4980766;28;20053;-88
2021/11/07 02:59:54;;;;;;;25.08;19.50;;;11.10;99.90;;;;;;4981450;28;20026;-89
2021/11/07 03:02:19;;;;;;;26.50;20.23;;;11.10;99.90;;;;;;4981282;28;20026;-87
2021/11/07 03:04:45;;;;;;;28.30;21.50;;;11.20;99.90;;;;;;4997082;28;20117;-91
2021/11/07 03:07:11;;;;;;;25.90;21.02;;;11.10;99.90;;;;;;4980686;28;20038;-90
2021/11/07 03:09:39;;;;;;;28.33;22.00;;;11.10;99.90;;;;;;4980628;28;20069;-89
2021/11/07 03:12:06;;;;;;;30.25;23.23;;;11.20;99.90;;;;;;4996883;28;20063;-89
2021/11/07 03:14:36;;;;;;;28.35;22.15;;;11.10;99.90;;;;;;4980558;28;20026;-90
2021/11/07 03:17:03;;;;;;;26.37;21.63;;;11.20;99.90;;;;;;4996798;28;20018;-89
2021/11/07 03:19:30;;;;;;;28.55;21.98;;;11.20;99.90;;;;;;4981062;28;20066;-89
2021/11/07 03:21:58;;;;;;;31.38;22.50;;;11.10;99.90;;;;;;4980812;28;20070;-90
2021/11/07 03:24:24;;;;;;;31.38;22.77;;;11.20;99.90;;;;;;4980606;28;20022;-90
2021/11/07 03:26:52;;;;;;;27.42;20.98;;;11.20;99.90;;;;;;4980807;28;20459;-88
2021/11/07 03:29:20;;;;;;;39.35;24.20;;;11.20;99.90;;;;;;4996625;28;20490;-89
2021/11/07 03:31:53;;;;;;;30.52;22.17;;;11.20;99.90;;;;;;4980445;28;20018;-90
2021/11/07 03:34:30;;;;;;;28.92;21.60;;;11.20;99.90;;;;;;4984977;28;20033;-90
2021/11/07 03:36:57;;;;;;;36.30;24.48;;;11.20;99.90;;;;;;4981312;28;20030;-91
2021/11/07 03:39:26;;;;;;;32.63;23.83;;;11.20;99.90;;;;;;4980878;28;20394;-90
2021/11/07 03:41:52;;;;;;;34.28;24.63;;;11.20;99.90;;;;;;4980375;28;20540;-90
2021/11/07 03:44:21;;;;;;;33.38;23.60;;;11.20;99.90;;;;;;4996642;28;20030;-89
2021/11/07 03:46:50;;;;;;;39.05;26.05;;;11.20;99.90;;;;;;4996443;28;20026;-89
2021/11/07 03:49:16;;;;;;;40.85;26.95;;;11.20;99.90;;;;;;4997207;28;20034;-89
2021/11/07 03:51:44;;;;;;;40.55;24.80;;;11.30;99.90;;;;;;4979931;28;20045;-89
2021/11/07 03:54:11;;;;;;;36.72;25.58;;;11.20;99.90;;;;;;4980118;28;20026;-89
2021/11/07 03:56:37;;;;;;;41.25;25.50;;;11.30;99.90;;;;;;4995847;28;20073;-90
2021/11/07 03:59:05;;;;;;;38.65;24.50;;;11.30;99.90;;;;;;4995306;28;20058;-89
2021/11/07 04:01:32;;;;;;;37.50;23.73;;;11.30;99.90;;;;;;4997529;28;20034;-89
2021/11/07 04:03:58;;;;;;;41.80;24.85;;;11.30;99.90;;;;;;4980213;28;20030;-89
2021/11/07 04:06:24;;;;;;;38.88;24.15;;;11.30;99.90;;;;;;4997079;28;20383;-89
2021/11/07 04:08:50;;;;;;;32.58;21.38;;;11.40;99.90;;;;;;4996102;28;20471;-89
2021/11/07 04:11:16;;;;;;;32.42;20.25;;;11.40;99.90;;;;;;4995646;28;20037;-88
2021/11/07 04:13:41;;;;;;;30.27;17.42;;;11.40;99.90;;;;;;4996588;28;20042;-89
2021/11/07 04:16:09;;;;;;;30.10;15.77;;;11.40;99.90;;;;;;4979298;28;20049;-90
2021/11/07 04:18:35;;;;;;;34.78;18.77;;;11.40;99.90;;;;;;4979586;28;20031;-89
2021/11/07 04:21:02;;;;;;;27.70;13.98;;;11.40;99.90;;;;;;4995752;28;20057;-89
2021/11/07 04:23:28;;;;;;;24.30;12.43;;;11.50;99.90;;;;;;4995873;28;20065;-89
2021/11/07 04:25:54;;;;;;;26.38;10.57;;;11.40;99.90;;;;;;4979223;28;20097;-89
2021/11/07 04:28:20;;;;;;;21.17;7.30;;;11.40;99.90;;;;;;4995683;28;20049;-89
2021/11/07 04:30:46;;;;;;;26.38;7.43;;;11.40;99.90;;;;;;4962697;28;20375;-89
2021/11/07 04:33:14;;;;;;;25.13;7.10;;;11.40;99.90;;;;;;4996797;28;20093;-89
2021/11/07 04:35:40;;;;;;;21.70;6.57;;;11.30;99.90;;;;;;4979417;28;20022;-90
2021/11/07 04:38:05;;;;;;;17.70;6.40;;;11.30;99.90;;;;;;4979566;28;20026;-89
2021/11/07 04:40:31;;;;;;;22.55;6.63;;;11.30;99.90;;;;;;4963216;28;20030;-89
2021/11/07 04:42:57;;;;;;;20.05;6.55;;;11.30;99.90;;;;;;4947228;28;20034;-89
2021/11/07 04:45:23;;;;;;;22.50;7.47;;;11.20;99.90;;;;;;4963285;28;20022;-90
2021/11/07 04:47:49;;;;;;;22.63;7.75;;;11.20;99.90;;;;;;4962489;28;20026;-89
2021/11/07 04:50:17;;;;;;;23.35;9.00;;;11.20;99.90;;;;;;4979297;28;20210;-89
2021/11/07 04:52:44;;;;;;;21.30;8.70;;;11.20;99.90;;;;;;4996047;28;20463;-89
2021/11/07 04:55:10;;;;;;;19.00;7.57;;;11.20;99.90;;;;;;4963220;28;20069;-89
2021/11/07 04:57:42;;;;;;;20.63;8.73;;;11.20;99.90;;;;;;4962747;28;20478;-90
2021/11/07 05:00:21;;;;;;;23.13;8.85;;;11.20;99.90;;;;;;4979164;28;20037;-90
2021/11/07 05:02:48;;;;;;;22.80;8.93;;;11.20;99.90;;;;;;4996160;28;20509;-90
2021/11/07 05:05:14;;;;;;;26.50;9.82;;;11.20;99.90;;;;;;4946837;28;20122;-89
2021/11/07 05:07:40;;;;;;;24.63;8.73;;;11.20;99.90;;;;;;4978745;28;20041;-89
2021/11/07 05:10:07;;;;;;;16.40;6.93;;;11.30;99.90;;;;;;4978911;28;20113;-89
2021/11/07 05:12:32;;;;;;;19.35;6.78;;;11.20;99.90;;;;;;4995097;28;20026;-89
2021/11/07 05:14:59;;;;;;;18.27;6.70;;;11.20;99.90;;;;;;4978884;28;20027;-89
2021/11/07 05:17:25;;;;;;;18.77;6.00;;;11.20;99.90;;;;;;4963174;28;20382;-89
2021/11/07 05:19:51;;;;;;;21.17;6.85;;;11.20;99.90;;;;;;4978917;28;20102;-89
2021/11/07 05:22:17;;;;;;;16.73;5.95;;;11.30;99.90;;;;;;4978676;28;20065;-90
2021/11/07 05:24:43;;;;;;;21.20;6.53;;;11.20;99.90;;;;;;4962157;28;20030;-89
2021/11/07 05:27:08;;;;;;;18.65;6.15;;;11.20;99.90;;;;;;4995196;28;20026;-89
2021/11/07 05:29:34;;;;;;;19.30;6.65;;;11.20;99.90;;;;;;4978829;28;20081;-90
2021/11/07 05:32:00;;;;;;;19.05;6.32;;;11.20;99.90;;;;;;4947101;28;20085;-88
2021/11/07 05:34:27;;;;;;;19.30;6.80;;;11.20;99.90;;;;;;4978786;28;20061;-89
2021/11/07 05:36:53;;;;;;;15.27;5.10;;;11.20;99.90;;;;;;4994772;28;20023;-89
2021/11/07 05:39:20;;;;;;;20.80;5.32;;;11.20;99.90;;;;;;4978670;28;20319;-89
2021/11/07 05:41:47;;;;;;;17.38;4.68;;;11.20;99.90;;;;;;4978477;28;20042;-89
2021/11/07 05:44:13;;;;;;;17.92;4.47;;;11.20;99.90;;;;;;4979209;28;20026;-89
2021/11/07 05:46:39;;;;;;;13.00;4.90;;;11.20;99.90;;;;;;4979932;28;20034;-89
2021/11/07 05:49:04;;;;;;;12.63;4.15;;;11.20;99.90;;;;;;4946290;28;20034;-89
2021/11/07 05:51:31;;;;;;;23.00;5.15;;;11.20;99.90;;;;;;4946223;28;20033;-89
2021/11/07 05:53:57;;;;;;;15.98;4.28;;;11.20;99.90;;;;;;4962702;28;20026;-89
2021/11/07 05:56:23;;;;;;;17.83;4.93;;;11.10;99.90;;;;;;4962452;28;20081;-89
2021/11/07 05:58:49;;;;;;;15.50;3.78;;;11.10;99.90;;;;;;4995851;28;20058;-89
2021/11/07 06:01:14;;;;;;;18.05;3.90;;;11.10;99.90;;;;;;4978545;28;20026;-89
2021/11/07 06:03:40;;;;;;;15.93;3.90;;;11.10;99.90;;;;;;4962976;28;20051;-89
2021/11/07 06:06:06;;;;;;;13.45;2.90;;;11.10;99.90;;;;;;4947117;28;20537;-89
2021/11/07 06:08:32;;;;;;;17.48;4.53;;;11.00;99.90;;;;;;4948003;28;20038;-88
2021/11/07 06:10:58;;;;;;;16.23;3.22;;;11.00;99.90;;;;;;4946042;28;20026;-89
2021/11/07 06:13:25;;;;;;;14.52;2.90;;;11.00;99.90;;;;;;4978362;28;20022;-88
2021/11/07 06:15:51;;;;;;;15.90;3.17;;;11.00;99.90;;;;;;4994107;28;20263;-89
2021/11/07 06:18:16;;;;;;;16.73;3.00;;;10.90;99.90;;;;;;4946112;28;20099;-88
2021/11/07 06:20:42;;;;;;;13.93;2.85;;;10.90;99.90;;;;;;4978883;28;20484;-89
2021/11/07 06:23:10;;;;;;;12.85;2.67;;;10.90;99.90;;;;;;4999266;28;20011;-89
2021/11/07 06:25:36;;;;;;;16.20;4.00;;;10.90;99.90;;;;;;4983738;28;20025;-88
2021/11/07 06:28:04;;;;;;;15.68;3.17;;;10.80;99.90;;;;;;4984632;28;20483;-88
2021/11/07 06:30:30;;;;;;;13.40;2.60;;;10.80;99.90;;;;;;4965619;28;20062;-89
2021/11/07 06:32:55;;;;;;;11.25;2.40;;;10.80;99.90;;;;;;4965156;28;20427;-89
2021/11/07 06:35:22;;;;;;;11.27;2.65;;;10.70;99.90;;;;;;4965414;28;20065;-88
2021/11/07 06:37:47;;;;;;;14.15;2.95;;;10.70;99.90;;;;;;4998776;28;20033;-89
2021/11/07 06:40:14;;;;;;;18.10;3.95;;;10.70;99.90;;;;;;4981659;28;20042;-89
2021/11/07 06:42:41;;;;;;;11.60;2.42;;;10.70;99.90;;;;;;4965366;28;20023;-89
2021/11/07 06:45:07;;;;;;;19.63;3.50;;;10.60;99.90;;;;;;4965256;28;20031;-88
2021/11/07 06:47:33;;;;;;;18.33;3.20;;;10.60;99.90;;;;;;4997455;28;20014;-89
2021/11/07 06:49:59;;;;;;;16.92;3.10;;;10.50;99.90;;;;;;4965245;28;20050;-89
2021/11/07 06:52:25;;;;;;;15.65;3.20;;;10.50;99.90;;;;;;4981527;28;20033;-89
2021/11/07 06:54:52;;;;;;;13.02;2.75;;;10.50;99.90;;;;;;4981221;28;20049;-89
2021/11/07 06:57:18;;;;;;;19.15;3.60;;;10.50;99.90;;;;;;4981002;28;20030;-89
2021/11/07 06:59:44;;;;;;;15.90;3.30;;;10.40;99.90;;;;;;4961727;28;20055;-88
2021/11/07 07:02:11;;;;;;;17.85;3.70;;;10.40;99.90;;;;;;4994402;28;20023;-88
2021/11/07 07:04:36;;;;;;;12.25;2.90;;;10.40;99.90;;;;;;4994097;28;20109;-89
2021/11/07 07:07:02;;;;;;;13.80;2.75;;;10.40;99.90;;;;;;4994228;28;20058;-89
2021/11/07 07:09:31;;;;;;;15.50;2.85;;;10.40;99.90;;;;;;4978011;28;20031;-89
2021/11/07 07:12:08;;;;;;;20.02;4.20;;;10.30;99.90;;;;;;4993744;28;20023;-89
2021/11/07 07:14:40;;;;;;;20.52;3.92;;;10.40;99.90;;;;;;4978948;28;20034;-90
2021/11/07 07:17:30;;;;;;;15.95;3.17;;;10.30;99.90;;;;;;4977899;28;20055;-89
2021/11/07 07:22:46;;;;;;;15.45;3.08;;;10.30;99.90;;;;;;4993995;28;20062;-89
2021/11/07 07:30:33;;;;;;;16.13;2.95;;;10.20;99.90;;;;;;4993094;28;20031;-89
2021/11/07 07:35:28;;;;;;;16.60;3.60;;;10.20;99.90;;;;;;4980972;28;20035;-89
2021/11/07 07:37:55;;;;;;;12.82;3.63;;;10.20;99.90;;;;;;4996245;28;20034;-89
2021/11/07 07:40:22;;;;;;;16.13;3.03;;;10.20;99.90;;;;;;4981582;28;20035;-89
2021/11/07 07:42:47;;;;;;;17.65;3.55;;;10.20;99.90;;;;;;4981629;28;20027;-89
2021/11/07 07:45:14;;;;;;;28.17;4.40;;;10.20;99.90;;;;;;4994547;28;20014;-89
2021/11/07 07:47:42;;;;;;;21.80;3.72;;;10.10;99.90;;;;;;4999335;28;20082;-88
2021/11/07 07:50:10;;;;;;;21.35;4.20;;;10.20;99.90;;;;;;5015758;28;20030;-89
2021/11/07 07:52:36;;;;;;;17.63;3.22;;;10.10;99.90;;;;;;4999930;28;20014;-89
2021/11/07 07:55:03;;;;;;;18.73;3.72;;;10.10;99.90;;;;;;5015907;28;20083;-89
2021/11/07 07:57:28;;;;;;;22.00;3.90;;;10.10;99.90;;;;;;4998935;28;20126;-89
2021/11/07 07:59:54;;;;;;;13.38;2.63;;;10.10;99.90;;;;;;4977422;28;20078;-89
2021/11/07 08:02:20;;;;;;;17.42;3.30;;;10.10;99.90;;;;;;4993047;28;20508;-89
2021/11/07 08:04:46;;;;;;;18.35;3.35;;;10.10;99.90;;;;;;4977235;28;20018;-89
2021/11/07 08:07:11;;;;;;;15.18;3.70;;;10.10;99.90;;;;;;4993180;28;20027;-88
2021/11/07 08:09:37;;;;;;;21.45;4.20;;;10.10;99.90;;;;;;4977117;28;20485;-88
2021/11/07 08:12:03;;;;;;;18.95;3.08;;;10.10;99.90;;;;;;4976890;28;20035;-88
2021/11/07 08:14:29;;;;;;;18.02;3.42;;;10.10;99.90;;;;;;4976796;28;20027;-88
2021/11/07 08:16:54;;;;;;;18.60;3.35;;;10.20;99.90;;;;;;4976856;28;20034;-88
2021/11/07 08:19:20;;;;;;;19.88;3.80;;;10.20;99.90;;;;;;4993435;28;20107;-89
2021/11/07 08:21:46;;;;;;;13.23;3.00;;;10.20;99.90;;;;;;4976773;28;20027;-89
2021/11/07 08:24:13;;;;;;;20.77;3.97;;;10.20;99.90;;;;;;4993006;28;20494;-89
2021/11/07 08:26:41;;;;;;;19.02;3.75;;;10.30;99.90;;;;;;4978209;28;20030;-89
2021/11/07 08:29:09;;;;;;;21.15;3.40;;;10.30;99.90;;;;;;4976596;28;20122;-89
2021/11/07 08:31:37;;;;;;;19.48;3.53;;;10.30;99.90;;;;;;4976732;28;20030;-90
2021/11/07 08:34:05;;;;;;;14.18;2.95;;;10.30;99.90;;;;;;4992725;28;20026;-89
2021/11/07 08:36:48;;;;;;;11.13;2.50;;;10.40;99.90;;;;;;4976521;28;20102;-89
2021/11/07 08:39:21;;;;;;;18.58;2.90;;;10.40;99.90;;;;;;4976746;28;20031;-89
2021/11/07 08:42:29;;;;;;;13.93;2.78;;;10.50;99.90;;;;;;4976384;28;20027;-89
2021/11/07 09:03:54;;;;;;;22.20;3.97;;;10.60;99.90;;;;;;4979685;28;20364;-91
2021/11/07 09:06:25;;;;;;;20.73;3.13;;;10.70;99.90;;;;;;4964495;28;20030;-91
2021/11/07 09:08:52;;;;;;;21.90;3.50;;;10.70;99.90;;;;;;4996037;28;20042;-91
2021/11/07 09:11:19;;;;;;;25.80;4.57;;;10.70;99.90;;;;;;4995852;28;20035;-91
2021/11/07 09:13:46;;;;;;;18.77;3.60;;;10.70;99.90;;;;;;4995126;28;20034;-91
2021/11/07 09:16:14;;;;;;;18.10;3.33;;;10.80;99.90;;;;;;4962872;28;20037;-90
2021/11/07 09:18:40;;;;;;;22.83;3.15;;;10.80;99.90;;;;;;4979258;28;20042;-90
2021/11/07 09:21:10;;;;;;;19.90;3.42;;;10.90;99.90;;;;;;4978481;28;20025;-88
2021/11/07 09:26:23;;;;;;;20.17;3.50;;;11.00;99.90;;;;;;4977957;28;20169;-87
2021/11/07 09:29:09;;;;;;;28.30;3.63;;;11.00;99.90;;;;;;4978121;28;20049;-90
2021/11/07 09:34:30;;;;;;;23.00;3.58;;;11.10;99.90;;;;;;4981804;28;20045;-89
2021/11/07 09:37:02;;;;;;;20.00;3.63;;;11.10;99.90;;;;;;4949921;28;20030;-89
2021/11/07 09:39:48;;;;;;;15.32;2.90;;;11.10;99.90;;;;;;4979745;28;20048;-89
2021/11/07 09:45:02;;;;;;;17.00;3.55;;;11.20;99.90;;;;;;4980804;28;20038;-88
2021/11/07 09:47:33;;;;;;;18.77;3.38;;;11.30;99.90;;;;;;4978084;28;20033;-89
2021/11/07 09:49:59;;;;;;;24.15;5.38;;;11.30;99.90;;;;;;4961731;28;20168;-87
2021/11/07 09:52:35;;;;;;;17.42;3.03;;;11.40;99.90;;;;;;4962381;28;20495;-88
2021/11/07 09:55:03;;;;;;;20.38;3.40;;;11.40;99.90;;;;;;4978595;28;20112;-88
2021/11/07 09:57:29;;;;;;;18.35;3.28;;;11.50;99.90;;;;;;4965588;28;20037;-87
2021/11/07 10:00:01;;;;;;;17.15;4.00;;;11.60;99.90;;;;;;4982033;28;20375;-89
2021/11/07 10:02:28;;;;;;;17.13;2.95;;;11.60;99.90;;;;;;4981775;28;20141;-88
2021/11/07 10:04:56;;;;;;;14.98;3.08;;;11.70;99.90;;;;;;5003802;28;20025;-89
2021/11/07 10:07:27;;;;;;;19.02;3.30;;;11.70;99.90;;;;;;4967354;28;20026;-87
2021/11/07 10:10:03;;;;;;;17.67;3.53;;;11.70;99.90;;;;;;4999525;28;20039;-90
2021/11/07 10:12:44;;;;;;;17.70;3.60;;;11.80;99.90;;;;;;4981256;28;20394;-88
2021/11/07 10:15:18;;;;;;;;;;;11.90;99.90;;;;;;4999302;28;20027;-87
2021/11/07 10:23:09;;;;;;;15.35;3.58;;;12.00;99.90;;;;;;4999634;28;20035;-90
2021/11/07 10:25:52;;;;;;;16.60;3.15;;;12.00;99.90;;;;;;4999325;28;20023;-93
2021/11/07 10:28:28;;;;;;;12.05;3.03;;;12.10;99.90;;;;;;4999090;28;20026;-89
2021/11/07 10:31:08;;;;;;;19.48;3.70;;;12.20;99.90;;;;;;4999036;28;20056;-88
2021/11/07 10:52:41;;;;;;;18.50;3.17;;;12.70;99.90;;;;;;4999028;28;20090;-88
2021/11/07 10:55:17;;;;;;;16.27;3.15;;;12.80;99.90;;;;;;4981371;28;20117;-89
2021/11/07 10:57:49;;;;;;;14.52;3.05;;;12.80;99.90;;;;;;5005296;28;20073;-90
2021/11/07 11:00:31;;;;;;;16.98;3.00;;;12.80;99.90;;;;;;4983328;28;20146;-90
2021/11/07 11:03:02;;;;;;;14.73;3.00;;;12.90;99.90;;;;;;4981597;28;20019;-90
2021/11/07 11:05:45;;;;;;;14.77;2.83;;;13.00;99.90;;;;;;4981408;28;20090;-90
2021/11/07 11:08:22;;;;;;;17.58;2.95;;;13.10;99.90;;;;;;4980845;28;20097;-91
2021/11/07 11:13:51;;;;;;;16.15;3.15;;;13.20;99.90;;;;;;5006805;28;20030;-91
2021/11/07 11:16:37;;;;;;;19.80;3.50;;;13.30;99.90;;;;;;4981173;28;20050;-91
2021/11/07 11:22:29;;;;;;;16.58;3.38;;;13.30;99.90;;;;;;4982604;28;20117;-92
2021/11/07 11:43:11;;;;;;;18.15;3.25;;;13.80;99.80;;;;;;4983691;28;20046;-94
2021/11/07 11:45:41;;;;;;;15.68;3.08;;;13.80;99.70;;;;;;4967469;28;20028;-92
2021/11/07 11:49:06;;;;;;;15.75;3.70;;;13.90;99.70;;;;;;4998699;28;20033;-92
2021/11/07 11:51:42;;;;;;;14.75;2.35;;;13.90;98.30;;;;;;4997763;28;20031;-93
2021/11/07 12:00:29;;;;;;;10.23;2.45;;;13.90;99.30;;;;;;4996948;28;20050;-92
2021/11/07 12:05:39;;;;;;;11.48;2.05;;;13.80;98.80;;;;;;4980982;28;20085;-94
2021/11/07 12:08:16;;;;;;;9.90;2.13;;;13.70;98.10;;;;;;4997620;28;20018;-92
2021/11/07 12:16:19;;;;;;;10.35;2.40;;;13.50;98.90;;;;;;5002613;28;20118;-93
2021/11/07 12:19:06;;;;;;;10.43;2.55;;;13.40;99.50;;;;;;4988243;28;20037;-91
2021/11/07 12:21:48;;;;;;;10.32;2.10;;;13.40;98.70;;;;;;5002621;28;20026;-95
2021/11/07 12:24:18;;;;;;;12.55;2.63;;;13.30;99.50;;;;;;4998414;28;20022;-94
2021/11/07 12:26:43;;;;;;;10.38;1.85;;;13.30;99.40;;;;;;4997305;28;20038;-96
2021/11/07 12:29:10;;;;;;;9.85;2.28;;;13.20;99.90;;;;;;4965205;28;20034;-93
2021/11/07 12:31:59;;;;;;;8.75;1.95;;;13.10;99.80;;;;;;4981586;28;20072;-94
2021/11/07 12:41:13;;;;;;;10.07;1.92;;;13.00;99.90;;;;;;4999577;28;20060;-95
2021/11/07 12:43:42;;;;;;;12.93;2.33;;;13.00;99.90;;;;;;4979501;28;20030;-94
2021/11/07 12:46:11;;;;;;;11.70;2.67;;;13.00;99.90;;;;;;4992374;28;20090;-94
2021/11/07 12:48:37;;;;;;;13.75;3.35;;;13.00;99.90;;;;;;5013556;28;20018;-93
2021/11/07 12:51:05;;;;;;;12.15;2.80;;;13.00;99.90;;;;;;5017714;28;20017;-94
2021/11/07 12:54:03;;;;;;;13.13;2.58;;;13.00;99.90;;;;;;5002458;28;20048;-92
2021/11/07 12:56:49;;;;;;;12.10;2.60;;;13.00;99.90;;;;;;5019044;28;20007;-90
2021/11/07 12:59:29;;;;;;;14.23;2.75;;;13.10;99.90;;;;;;4998733;28;20043;-91
2021/11/07 13:02:05;;;;;;;13.20;2.87;;;13.00;99.90;;;;;;5014927;28;20098;-93
2021/11/07 13:04:43;;;;;;;14.45;3.40;;;13.10;99.90;;;;;;4999185;28;20027;-93
2021/11/07 13:07:12;;;;;;;15.90;3.47;;;13.00;99.60;;;;;;4998561;28;20031;-93
2021/11/07 13:09:46;;;;;;;15.48;3.20;;;13.00;99.90;;;;;;4981994;28;20035;-95
2021/11/07 13:12:29;;;;;;;15.93;3.95;;;13.00;99.50;;;;;;4977887;28;20030;-95
2021/11/07 13:15:24;;;;;;;11.38;3.05;;;12.90;99.80;;;;;;4992712;28;20034;-94
2021/11/07 13:23:39;;;;;;;;;;;12.90;99.90;;;;;;4979257;28;20103;-93
2021/11/07 13:29:05;;;;;;;11.05;3.20;;;13.00;99.90;;;;;;4995630;28;20097;-90
2021/11/07 13:34:34;;;;;;;15.40;3.60;;;13.10;99.50;;;;;;4980459;28;20073;-95
2021/11/07 13:37:02;;;;;;;11.30;2.60;;;13.10;99.90;;;;;;4977893;28;20027;-95
2021/11/07 13:39:35;;;;;;;13.63;3.03;;;13.20;99.90;;;;;;4978371;28;20081;-95
2021/11/07 13:42:11;;;;;;;14.00;3.35;;;13.20;99.90;;;;;;4981333;28;20023;-95
2021/11/07 13:44:59;;;;;;;18.55;3.58;;;13.30;99.90;;;;;;4977088;28;20030;-94
2021/11/07 13:47:33;;;;;;;17.23;4.35;;;13.40;99.90;;;;;;4979256;28;20019;-96
2021/11/07 13:50:02;;;;;;;19.40;4.22;;;13.40;99.90;;;;;;4977880;28;20031;-95
2021/11/07 13:52:31;;;;;;;17.00;4.03;;;13.50;99.90;;;;;;4977352;28;20022;-93
2021/11/07 13:54:58;;;;;;;19.23;4.50;;;13.50;99.90;;;;;;4992551;28;20042;-94
2021/11/07 13:57:30;;;;;;;18.00;5.28;;;13.60;99.90;;;;;;4992136;28;20031;-93
2021/11/07 13:59:59;;;;;;;18.42;4.00;;;13.60;99.90;;;;;;4978976;28;20190;-92
2021/11/07 14:02:26;;;;;;;16.88;3.45;;;13.60;99.90;;;;;;4979038;28;20026;-91
2021/11/07 14:04:58;;;;;;;15.10;3.70;;;13.50;99.20;;;;;;4979414;28;20070;-94
2021/11/07 14:07:28;;;;;;;20.50;3.92;;;13.40;99.70;;;;;;4978873;28;20023;-92
2021/11/07 14:09:58;;;;;;;19.45;4.53;;;13.50;99.90;;;;;;4979880;28;20386;-92
2021/11/07 14:12:34;;;;;;;17.60;4.77;;;13.50;99.90;;;;;;4993708;28;20018;-90
2021/11/07 14:15:21;;;;;;;15.10;3.72;;;13.50;99.90;;;;;;4994709;28;20482;-90
2021/11/07 14:17:49;;;;;;;19.63;3.50;;;13.50;99.90;;;;;;4978134;28;20030;-89
2021/11/07 14:20:33;;;;;;;16.05;3.70;;;13.60;99.90;;;;;;4979068;28;20035;-90
2021/11/07 14:23:08;;;;;;;17.30;3.47;;;13.60;99.90;;;;;;4980236;28;20175;-90
2021/11/07 14:25:53;;;;;;;15.57;3.13;;;13.60;99.90;;;;;;4997988;28;20029;-92
2021/11/07 14:28:29;;;;;;;17.13;3.20;;;13.60;99.90;;;;;;4996507;28;20054;-91
2021/11/07 14:31:01;;;;;;;13.82;3.58;;;13.50;99.90;;;;;;4995459;28;20023;-90
2021/11/07 14:33:36;;;;;;;14.02;2.75;;;13.50;99.90;;;;;;4962533;28;20129;-90
2021/11/07 14:36:21;;;;;;;22.92;3.85;;;13.50;99.90;;;;;;4962820;28;20145;-90
2021/11/07 14:38:57;;;;;;;11.90;2.60;;;13.40;99.90;;;;;;4996299;28;20027;-94
2021/11/07 14:42:18;;;;;;;12.68;3.35;;;13.30;99.90;;;;;;4981596;28;20057;-90
2021/11/07 14:44:37;;;;;;;20.92;5.32;;;13.20;99.90;;;;;;4999086;28;20062;-96
2021/11/07 14:47:33;;;;;;;17.25;4.75;;;13.10;99.90;;;;;;4981775;28;20018;-93
2021/11/07 14:50:38;;;;;;;16.45;4.18;;;13.00;99.90;;;;;;4980903;28;20108;-91
2021/11/07 14:53:30;;;;;;;13.45;4.90;;;12.90;99.90;;;;;;4980394;28;20057;-93
2021/11/07 15:02:03;;;;;;;15.70;4.75;;;12.70;99.90;;;;;;5000183;28;20065;-92
2021/11/07 15:05:22;;;;;;;;;;;;;;;;;;;;;
2021/11/07 15:08:07;;;;;;;12.43;5.43;;;12.60;99.90;;;;;;4975450;28;20474;-92
2021/11/07 15:17:47;;;;;;;;;;;;;;;;;;;;;
2021/11/07 15:20:36;;;;;;;16.10;3.90;;;12.40;99.90;;;;;;5004052;28;20109;-95
2021/11/07 15:23:27;;;;;;;11.20;2.50;;;12.40;99.90;;;;;;4969104;28;20038;-95
2021/11/07 15:26:01;;;;;;;14.50;2.58;;;12.30;99.90;;;;;;4969041;28;20106;-95
2021/11/07 15:29:01;;;;;;;19.70;5.60;;;12.20;99.90;;;;;;4985495;28;20084;-94
2021/11/07 15:31:34;;;;;;;15.70;4.82;;;12.20;99.90;;;;;;4974895;28;20041;-95
2021/11/07 15:34:39;;;;;;;;;;;;;;;;;;;;;
2021/11/07 15:37:10;;;;;;;14.57;4.15;;;12.20;99.90;;;;;;5000926;28;20078;-91